Time;durP1;ratioP1;P1;durP2;ratioP2;P2;SDS_P1;SDS_P2;PMS_P1;PMS_P2;Temp;Humidity;BMP_temperature;BMP_pressure;BME280_temperature;BME280_humidity;BME280_pressure;Samples;Min_cycle;Max_cycle;Signal;HPM_P1;HPM_P2
2021/05/25 00:02:17;;;;;;;8.60;2.90;;;;;;;;;;4420617;32;20224;-53
2021/05/25 00:04:42;;;;;;;11.93;3.33;;;;;;;;;;4420451;32;20262;-53
2021/05/25 00:07:07;;;;;;;11.10;3.80;;;;;;;;;;4420156;32;20228;-53
2021/05/25 00:09:33;;;;;;;12.02;3.70;;;;;;;;;;4420280;32;20380;-53
2021/05/25 00:11:58;;;;;;;14.90;4.50;;;;;;;;;;4420573;32;20629;-53
2021/05/25 00:14:24;;;;;;;15.57;4.10;;;;;;;;;;4420536;32;20189;-53
2021/05/25 00:16:51;;;;;;;18.58;4.30;;;;;;;;;;4420530;32;20338;-52
2021/05/25 00:19:18;;;;;;;19.23;3.95;;;;;;;;;;4420019;32;20562;-53
2021/05/25 00:21:45;;;;;;;14.70;3.50;;;;;;;;;;4420294;32;20220;-52
2021/05/25 00:24:10;;;;;;;8.27;3.92;;;;;;;;;;4420038;32;20243;-52
2021/05/25 00:26:36;;;;;;;10.93;4.05;;;;;;;;;;4420424;32;20407;-52
2021/05/25 00:29:02;;;;;;;11.65;3.35;;;;;;;;;;4419734;32;20545;-52
2021/05/25 00:31:27;;;;;;;11.40;3.22;;;;;;;;;;4420153;32;20279;-52
2021/05/25 00:33:53;;;;;;;18.25;4.32;;;;;;;;;;4420169;32;20577;-52
2021/05/25 00:36:20;;;;;;;11.93;3.97;;;;;;;;;;4420187;32;20405;-52
2021/05/25 00:38:45;;;;;;;13.10;4.22;;;;;;;;;;4419924;32;20206;-52
2021/05/25 00:41:11;;;;;;;9.55;4.10;;;;;;;;;;4406059;32;20329;-53
2021/05/25 00:43:36;;;;;;;15.05;3.85;;;;;;;;;;4419770;32;20519;-52
2021/05/25 00:46:02;;;;;;;12.23;3.33;;;;;;;;;;4420086;32;20383;-52
2021/05/25 00:48:27;;;;;;;11.02;3.65;;;;;;;;;;4419876;32;20219;-52
2021/05/25 00:50:55;;;;;;;11.20;3.03;;;;;;;;;;4419851;32;20272;-52
2021/05/25 00:53:20;;;;;;;11.20;3.25;;;;;;;;;;4419599;32;20310;-52
2021/05/25 00:55:46;;;;;;;9.32;3.78;;;;;;;;;;4419752;32;20304;-52
2021/05/25 00:58:11;;;;;;;15.85;3.87;;;;;;;;;;4419406;32;20229;-52
2021/05/25 01:00:39;;;;;;;14.27;3.87;;;;;;;;;;4419679;32;20352;-52
2021/05/25 01:03:09;;;;;;;13.23;3.22;;;;;;;;;;4419680;32;20217;-54
2021/05/25 01:05:35;;;;;;;9.48;3.58;;;;;;;;;;4419211;32;20217;-52
2021/05/25 01:08:01;;;;;;;7.53;3.37;;;;;;;;;;4419275;32;20327;-52
2021/05/25 01:10:30;;;;;;;11.85;3.40;;;;;;;;;;4419526;32;20284;-52
2021/05/25 01:13:03;;;;;;;12.88;3.35;;;;;;;;;;4419448;32;20216;-52
2021/05/25 01:15:28;;;;;;;10.88;3.45;;;;;;;;;;4419283;32;20239;-52
2021/05/25 01:17:55;;;;;;;9.68;3.35;;;;;;;;;;4419584;32;20681;-52
2021/05/25 01:20:24;;;;;;;11.55;3.45;;;;;;;;;;4419095;32;20217;-53
2021/05/25 01:22:50;;;;;;;10.45;2.87;;;;;;;;;;4419206;32;20284;-52
2021/05/25 01:25:17;;;;;;;13.98;3.75;;;;;;;;;;4419174;32;20303;-52
2021/05/25 01:27:50;;;;;;;11.38;3.97;;;;;;;;;;4419281;32;20217;-51
2021/05/25 01:30:18;;;;;;;10.13;3.10;;;;;;;;;;4419468;32;20280;-52
2021/05/25 01:32:43;;;;;;;11.55;3.50;;;;;;;;;;4404153;32;20251;-52
2021/05/25 01:35:09;;;;;;;12.50;4.05;;;;;;;;;;4404520;32;20292;-54
2021/05/25 01:37:35;;;;;;;22.45;3.80;;;;;;;;;;4404024;32;20252;-52
2021/05/25 01:40:00;;;;;;;8.20;3.55;;;;;;;;;;4389883;32;20367;-52
2021/05/25 01:42:35;;;;;;;22.77;3.97;;;;;;;;;;4403167;32;20252;-51
2021/05/25 01:45:01;;;;;;;13.45;3.97;;;;;;;;;;4403808;32;20681;-52
2021/05/25 01:47:27;;;;;;;13.13;3.80;;;;;;;;;;4403548;32;20275;-52
2021/05/25 01:49:52;;;;;;;8.48;2.85;;;;;;;;;;4389682;32;20241;-52
2021/05/25 01:52:19;;;;;;;13.05;3.55;;;;;;;;;;4403893;32;20233;-52
2021/05/25 01:54:46;;;;;;;9.10;3.05;;;;;;;;;;4403662;32;20217;-52
2021/05/25 01:57:11;;;;;;;17.73;3.83;;;;;;;;;;4403334;32;20584;-52
2021/05/25 01:59:37;;;;;;;13.98;4.95;;;;;;;;;;4402945;32;20242;-52
2021/05/25 02:02:02;;;;;;;21.62;6.90;;;;;;;;;;4403500;32;20240;-53
2021/05/25 02:04:28;;;;;;;27.85;6.18;;;;;;;;;;4403034;32;20597;-53
2021/05/25 02:06:53;;;;;;;20.98;6.28;;;;;;;;;;4415684;32;20276;-53
2021/05/25 02:09:19;;;;;;;23.60;5.95;;;;;;;;;;4417933;32;20221;-52
2021/05/25 02:11:45;;;;;;;16.35;6.18;;;;;;;;;;4418383;32;20569;-52
2021/05/25 02:14:10;;;;;;;15.07;6.07;;;;;;;;;;4418454;32;20586;-53
2021/05/25 02:16:36;;;;;;;16.45;6.22;;;;;;;;;;4418126;32;20694;-53
2021/05/25 02:19:02;;;;;;;19.12;6.10;;;;;;;;;;4417768;32;20204;-53
2021/05/25 02:21:27;;;;;;;21.35;6.35;;;;;;;;;;4418002;32;20245;-53
2021/05/25 02:23:53;;;;;;;17.65;5.32;;;;;;;;;;4417966;32;20252;-53
2021/05/25 02:26:18;;;;;;;16.12;5.68;;;;;;;;;;4418101;32;20225;-53
2021/05/25 02:28:44;;;;;;;13.43;5.30;;;;;;;;;;4418235;32;20550;-53
2021/05/25 02:31:11;;;;;;;16.33;4.95;;;;;;;;;;4412462;32;20221;-53
2021/05/25 02:33:37;;;;;;;22.83;5.10;;;;;;;;;;4402856;32;20274;-52
2021/05/25 02:36:03;;;;;;;16.42;5.70;;;;;;;;;;4402829;32;20711;-52
2021/05/25 02:38:30;;;;;;;17.02;5.37;;;;;;;;;;4402714;32;20336;-52
2021/05/25 02:40:56;;;;;;;13.38;5.62;;;;;;;;;;4403140;32;20652;-52
2021/05/25 02:43:23;;;;;;;12.37;4.68;;;;;;;;;;4403164;32;20205;-53
2021/05/25 02:45:50;;;;;;;11.25;5.18;;;;;;;;;;4402966;32;20209;-52
2021/05/25 02:48:16;;;;;;;15.10;5.78;;;;;;;;;;4403208;32;20202;-52
2021/05/25 02:50:42;;;;;;;13.52;6.10;;;;;;;;;;4402959;32;20295;-54
2021/05/25 02:53:09;;;;;;;20.50;5.15;;;;;;;;;;4402882;32;20293;-52
2021/05/25 02:55:36;;;;;;;15.95;4.70;;;;;;;;;;4402904;32;20691;-52
2021/05/25 02:58:04;;;;;;;8.77;3.53;;;;;;;;;;4403050;32;20282;-54
2021/05/25 03:00:37;;;;;;;15.40;3.72;;;;;;;;;;4413698;32;20762;-52
2021/05/25 03:03:03;;;;;;;15.65;4.62;;;;;;;;;;4418330;32;20299;-52
2021/05/25 03:05:28;;;;;;;11.00;3.62;;;;;;;;;;4417741;32;20255;-52
2021/05/25 03:07:57;;;;;;;14.38;3.60;;;;;;;;;;4404296;32;20224;-53
2021/05/25 03:10:26;;;;;;;15.27;4.37;;;;;;;;;;4418105;32;20598;-53
2021/05/25 03:12:52;;;;;;;12.23;3.67;;;;;;;;;;4417917;32;20408;-53
2021/05/25 03:15:21;;;;;;;14.10;4.45;;;;;;;;;;4417935;32;20276;-54
2021/05/25 03:17:46;;;;;;;7.85;2.95;;;;;;;;;;4418143;32;20277;-53
2021/05/25 03:20:14;;;;;;;15.32;4.03;;;;;;;;;;4417852;32;20269;-53
2021/05/25 03:22:40;;;;;;;10.70;4.60;;;;;;;;;;4418024;32;20225;-53
2021/05/25 03:25:07;;;;;;;7.57;4.12;;;;;;;;;;4417503;32;20298;-54
2021/05/25 03:27:33;;;;;;;10.07;5.10;;;;;;;;;;4418087;32;20270;-53
2021/05/25 03:29:58;;;;;;;9.73;4.40;;;;;;;;;;4417899;32;20220;-53
2021/05/25 03:32:24;;;;;;;14.90;5.00;;;;;;;;;;4404381;32;20214;-52
2021/05/25 03:34:49;;;;;;;14.77;5.82;;;;;;;;;;4402825;32;20354;-52
2021/05/25 03:37:15;;;;;;;18.90;6.32;;;;;;;;;;4402821;32;20243;-53
2021/05/25 03:39:40;;;;;;;20.37;5.37;;;;;;;;;;4402737;32;20295;-53
2021/05/25 03:42:06;;;;;;;17.80;5.25;;;;;;;;;;4402664;32;20317;-53
2021/05/25 03:44:32;;;;;;;11.60;5.50;;;;;;;;;;4402632;32;20201;-54
2021/05/25 03:46:58;;;;;;;20.42;6.30;;;;;;;;;;4402698;32;20299;-53
2021/05/25 03:49:23;;;;;;;18.62;5.65;;;;;;;;;;4402496;32;20557;-53
2021/05/25 03:51:49;;;;;;;15.55;4.72;;;;;;;;;;4402456;32;20300;-55
2021/05/25 03:54:19;;;;;;;14.40;4.47;;;;;;;;;;4402463;32;20676;-54
2021/05/25 03:56:58;;;;;;;16.12;6.55;;;;;;;;;;4402738;32;20542;-53
2021/05/25 03:59:23;;;;;;;14.63;4.70;;;;;;;;;;4406118;32;20684;-53
2021/05/25 04:01:49;;;;;;;23.52;8.85;;;;;;;;;;4417661;32;20308;-54
2021/05/25 04:04:14;;;;;;;18.48;6.87;;;;;;;;;;4417864;32;20228;-53
2021/05/25 04:06:40;;;;;;;15.15;5.05;;;;;;;;;;4420417;32;20534;-53
2021/05/25 04:09:08;;;;;;;18.35;4.50;;;;;;;;;;4420350;32;20258;-53
2021/05/25 04:11:34;;;;;;;8.60;4.10;;;;;;;;;;4420414;32;20229;-53
2021/05/25 04:14:00;;;;;;;19.45;4.95;;;;;;;;;;4420052;32;20342;-53
2021/05/25 04:16:25;;;;;;;8.30;4.43;;;;;;;;;;4419994;32;20221;-52
2021/05/25 04:18:51;;;;;;;7.10;4.90;;;;;;;;;;4420110;32;20319;-52
2021/05/25 04:21:16;;;;;;;14.38;5.20;;;;;;;;;;4420117;32;20526;-52
2021/05/25 04:23:42;;;;;;;17.87;5.80;;;;;;;;;;4420018;32;20210;-53
2021/05/25 04:26:07;;;;;;;15.05;5.43;;;;;;;;;;4406060;32;20342;-53
2021/05/25 04:28:33;;;;;;;27.60;5.45;;;;;;;;;;4419951;32;20205;-52
2021/05/25 04:30:58;;;;;;;17.80;5.57;;;;;;;;;;4415686;32;20304;-53
2021/05/25 04:33:24;;;;;;;15.35;5.32;;;;;;;;;;4404883;32;20535;-54
2021/05/25 04:35:49;;;;;;;16.90;6.28;;;;;;;;;;4404621;32;20296;-53
2021/05/25 04:38:15;;;;;;;14.05;5.53;;;;;;;;;;4404451;32;20578;-53
2021/05/25 04:40:41;;;;;;;23.62;5.90;;;;;;;;;;4404870;32;20692;-53
2021/05/25 04:43:08;;;;;;;21.48;6.03;;;;;;;;;;4404078;32;20230;-52
2021/05/25 04:45:34;;;;;;;20.77;5.70;;;;;;;;;;4404362;32;20244;-53
2021/05/25 04:47:59;;;;;;;18.73;5.12;;;;;;;;;;4404212;32;20268;-53
2021/05/25 04:50:25;;;;;;;22.23;4.60;;;;;;;;;;4404598;32;20422;-52
2021/05/25 04:52:51;;;;;;;11.65;5.95;;;;;;;;;;4404458;32;20287;-54
2021/05/25 04:55:19;;;;;;;13.18;4.65;;;;;;;;;;4404332;32;20344;-54
2021/05/25 04:57:45;;;;;;;17.50;5.07;;;;;;;;;;4390590;32;20279;-52
2021/05/25 05:00:15;;;;;;;12.82;4.50;;;;;;;;;;4412583;32;20427;-53
2021/05/25 05:02:41;;;;;;;12.63;4.90;;;;;;;;;;4419794;32;20319;-52
2021/05/25 05:05:07;;;;;;;9.82;3.87;;;;;;;;;;4419276;32;20225;-52
2021/05/25 05:07:33;;;;;;;14.90;4.65;;;;;;;;;;4419349;32;20256;-52
2021/05/25 05:09:59;;;;;;;18.17;4.80;;;;;;;;;;4419210;32;20643;-52
2021/05/25 05:12:26;;;;;;;17.80;6.05;;;;;;;;;;4419013;32;20229;-52
2021/05/25 05:14:52;;;;;;;23.55;6.07;;;;;;;;;;4418964;32;20228;-53
2021/05/25 05:17:18;;;;;;;15.73;5.05;;;;;;;;;;4418602;32;20210;-52
2021/05/25 05:19:44;;;;;;;16.58;5.18;;;;;;;;;;4419216;32;20232;-53
2021/05/25 05:22:10;;;;;;;14.52;4.12;;;;;;;;;;4419203;32;20315;-53
2021/05/25 05:24:35;;;;;;;10.38;5.18;;;;;;;;;;4419276;32;20598;-53
2021/05/25 05:27:01;;;;;;;15.45;4.50;;;;;;;;;;4419118;32;20249;-53
2021/05/25 05:29:26;;;;;;;14.73;5.03;;;;;;;;;;4418960;32;20197;-53
2021/05/25 05:31:51;;;;;;;12.02;5.05;;;;;;;;;;4409267;32;20620;-52
2021/05/25 05:34:17;;;;;;;20.42;4.93;;;;;;;;;;4403741;32;20205;-52
2021/05/25 05:36:42;;;;;;;14.82;6.03;;;;;;;;;;4402658;32;20580;-52
2021/05/25 05:39:08;;;;;;;24.33;6.55;;;;;;;;;;4401825;32;20214;-52
2021/05/25 05:41:34;;;;;;;16.10;7.85;;;;;;;;;;4401500;32;20593;-52
2021/05/25 05:43:59;;;;;;;18.90;7.15;;;;;;;;;;4401426;32;20433;-52
2021/05/25 05:46:25;;;;;;;27.25;9.80;;;;;;;;;;4401632;32;20522;-53
2021/05/25 05:48:51;;;;;;;22.17;9.82;;;;;;;;;;4401760;32;20210;-52
2021/05/25 05:51:18;;;;;;;38.70;7.87;;;;;;;;;;4401796;32;20241;-52
2021/05/25 05:53:43;;;;;;;24.87;8.40;;;;;;;;;;4403656;32;20209;-52
2021/05/25 05:56:09;;;;;;;19.85;6.45;;;;;;;;;;4403477;32;20343;-53
2021/05/25 05:58:35;;;;;;;27.20;7.07;;;;;;;;;;4403610;32;20272;-52
2021/05/25 06:01:00;;;;;;;17.10;6.72;;;;;;;;;;4416903;32;20316;-53
2021/05/25 06:03:26;;;;;;;14.63;6.05;;;;;;;;;;4418667;32;20204;-52
2021/05/25 06:05:51;;;;;;;25.10;7.00;;;;;;;;;;4413707;32;20225;-53
2021/05/25 06:08:17;;;;;;;13.30;4.53;;;;;;;;;;4408918;32;20210;-52
2021/05/25 06:10:50;;;;;;;12.40;6.30;;;;;;;;;;4403244;32;20272;-53
2021/05/25 06:13:17;;;;;;;16.10;7.37;;;;;;;;;;4403481;32;20193;-52
2021/05/25 06:15:42;;;;;;;29.17;7.10;;;;;;;;;;4403045;32;20249;-53
2021/05/25 06:18:08;;;;;;;11.88;5.43;;;;;;;;;;4404146;32;20217;-53
2021/05/25 06:20:33;;;;;;;9.98;6.00;;;;;;;;;;4418118;32;20275;-54
2021/05/25 06:22:59;;;;;;;18.23;5.90;;;;;;;;;;4418572;32;20319;-54
2021/05/25 06:25:24;;;;;;;15.50;5.40;;;;;;;;;;4418302;32;20283;-53
2021/05/25 06:27:50;;;;;;;18.33;6.07;;;;;;;;;;4418440;32;20287;-53
2021/05/25 06:30:17;;;;;;;18.95;5.05;;;;;;;;;;4418244;32;20338;-53
2021/05/25 06:32:42;;;;;;;10.20;5.07;;;;;;;;;;4403261;32;20229;-53
2021/05/25 06:35:08;;;;;;;14.45;5.70;;;;;;;;;;4389417;32;20311;-53
2021/05/25 06:37:34;;;;;;;13.38;5.62;;;;;;;;;;4403172;32;20716;-53
2021/05/25 06:39:59;;;;;;;10.18;4.25;;;;;;;;;;4403024;32;20303;-53
2021/05/25 06:42:25;;;;;;;16.50;4.97;;;;;;;;;;4403349;32;20542;-52
2021/05/25 06:44:50;;;;;;;17.50;8.02;;;;;;;;;;4402687;32;20519;-53
2021/05/25 06:47:16;;;;;;;19.85;7.65;;;;;;;;;;4405760;32;20251;-53
2021/05/25 06:49:41;;;;;;;19.90;8.57;;;;;;;;;;4417800;32;20302;-53
2021/05/25 06:52:07;;;;;;;23.65;9.50;;;;;;;;;;4417930;32;20224;-53
2021/05/25 06:54:33;;;;;;;25.08;8.68;;;;;;;;;;4417852;32;20278;-53
2021/05/25 06:56:59;;;;;;;26.23;9.13;;;;;;;;;;4417897;32;20242;-52
2021/05/25 06:59:25;;;;;;;17.50;7.65;;;;;;;;;;4417802;32;20205;-53
2021/05/25 07:01:50;;;;;;;27.45;7.20;;;;;;;;;;4417985;32;20239;-54
2021/05/25 07:04:16;;;;;;;13.93;6.22;;;;;;;;;;4417664;32;20213;-53
2021/05/25 07:06:41;;;;;;;14.40;6.18;;;;;;;;;;4417701;32;20311;-53
2021/05/25 07:09:07;;;;;;;15.30;6.47;;;;;;;;;;4417792;32;20197;-53
2021/05/25 07:11:32;;;;;;;13.43;6.18;;;;;;;;;;4417515;32;20224;-53
2021/05/25 07:13:58;;;;;;;10.82;5.28;;;;;;;;;;4417661;32;20690;-53
2021/05/25 07:16:24;;;;;;;12.20;6.00;;;;;;;;;;4417784;32;20225;-53
2021/05/25 07:18:49;;;;;;;23.00;5.87;;;;;;;;;;4417561;32;20202;-53
2021/05/25 07:21:15;;;;;;;19.00;6.55;;;;;;;;;;4417159;32;20229;-53
2021/05/25 07:23:41;;;;;;;13.15;5.50;;;;;;;;;;4417527;32;20328;-53
2021/05/25 07:26:06;;;;;;;9.95;4.97;;;;;;;;;;4417442;32;20349;-53
2021/05/25 07:28:32;;;;;;;14.55;5.25;;;;;;;;;;4417310;32;20236;-53
2021/05/25 07:30:58;;;;;;;18.58;5.70;;;;;;;;;;4417247;32;20376;-53
2021/05/25 07:33:25;;;;;;;20.17;5.87;;;;;;;;;;4417274;32;20553;-53
2021/05/25 07:35:51;;;;;;;19.02;5.50;;;;;;;;;;4417333;32;20608;-54
2021/05/25 07:38:16;;;;;;;16.27;6.95;;;;;;;;;;4417444;32;20621;-53
2021/05/25 07:40:42;;;;;;;18.85;5.80;;;;;;;;;;4419813;32;20372;-53
2021/05/25 07:43:08;;;;;;;16.75;5.10;;;;;;;;;;4420407;32;20760;-53
2021/05/25 07:45:34;;;;;;;11.95;5.62;;;;;;;;;;4420516;32;20333;-54
2021/05/25 07:48:00;;;;;;;13.02;5.37;;;;;;;;;;4420656;32;20661;-54
2021/05/25 07:50:26;;;;;;;14.87;6.00;;;;;;;;;;4420038;32;20524;-53
2021/05/25 07:52:55;;;;;;;13.75;6.47;;;;;;;;;;4420605;32;20591;-53
2021/05/25 07:55:24;;;;;;;11.90;5.10;;;;;;;;;;4420391;32;20353;-53
2021/05/25 07:57:50;;;;;;;25.23;6.03;;;;;;;;;;4420195;32;20292;-53
2021/05/25 08:00:16;;;;;;;11.93;5.32;;;;;;;;;;4420488;32;20295;-54
2021/05/25 08:02:43;;;;;;;11.88;5.70;;;;;;;;;;4420520;32;20550;-53
2021/05/25 08:05:10;;;;;;;18.05;5.62;;;;;;;;;;4420259;32;20302;-53
2021/05/25 08:07:36;;;;;;;20.90;5.65;;;;;;;;;;4420381;32;20275;-53
2021/05/25 08:10:04;;;;;;;17.10;6.03;;;;;;;;;;4418622;32;20326;-53
2021/05/25 08:12:31;;;;;;;19.77;6.28;;;;;;;;;;4404484;32;20664;-54
2021/05/25 08:14:58;;;;;;;21.90;6.60;;;;;;;;;;4415722;32;20249;-53
2021/05/25 08:17:36;;;;;;;16.85;6.03;;;;;;;;;;4397358;32;20305;-53
2021/05/25 08:20:16;;;;;;;15.45;5.60;;;;;;;;;;4408909;32;20793;-53
2021/05/25 08:22:48;;;;;;;17.02;4.82;;;;;;;;;;4404818;32;20356;-53
2021/05/25 08:25:15;;;;;;;5.45;3.42;;;;;;;;;;4418742;32;20210;-53
2021/05/25 08:27:42;;;;;;;16.05;4.50;;;;;;;;;;4405985;32;20245;-53
2021/05/25 08:30:09;;;;;;;12.15;4.18;;;;;;;;;;4419797;32;20205;-52
2021/05/25 08:32:36;;;;;;;20.45;5.70;;;;;;;;;;4418880;32;20233;-53
2021/05/25 08:35:03;;;;;;;21.60;4.95;;;;;;;;;;4416260;32;20547;-52
2021/05/25 08:37:29;;;;;;;11.50;4.93;;;;;;;;;;4412472;32;20271;-52
2021/05/25 08:39:54;;;;;;;9.93;5.20;;;;;;;;;;4410902;32;20233;-52
2021/05/25 08:42:20;;;;;;;17.50;4.72;;;;;;;;;;4404568;32;20334;-52
2021/05/25 08:44:46;;;;;;;13.45;6.25;;;;;;;;;;4416587;32;20697;-53
2021/05/25 08:47:12;;;;;;;15.30;5.40;;;;;;;;;;4419829;32;20221;-53
2021/05/25 08:49:40;;;;;;;23.58;5.37;;;;;;;;;;4419572;32;20205;-53
2021/05/25 08:52:08;;;;;;;17.33;5.22;;;;;;;;;;4418906;32;20212;-53
2021/05/25 08:54:34;;;;;;;14.48;5.37;;;;;;;;;;4419342;32;20576;-53
2021/05/25 08:56:59;;;;;;;27.13;7.25;;;;;;;;;;4419551;32;20359;-53
2021/05/25 08:59:25;;;;;;;14.73;5.72;;;;;;;;;;4419254;32;20633;-52
2021/05/25 09:01:50;;;;;;;12.25;5.10;;;;;;;;;;4419842;32;20217;-52
2021/05/25 09:04:17;;;;;;;8.93;4.97;;;;;;;;;;4419317;32;20193;-52
2021/05/25 09:06:48;;;;;;;17.95;5.82;;;;;;;;;;4419136;32;20220;-52
2021/05/25 09:09:16;;;;;;;12.37;5.05;;;;;;;;;;4414170;32;20248;-52
2021/05/25 09:12:04;;;;;;;15.10;5.28;;;;;;;;;;4403839;32;20245;-52
2021/05/25 09:14:32;;;;;;;19.85;5.93;;;;;;;;;;4403645;32;20206;-52
2021/05/25 09:17:22;;;;;;;12.55;5.65;;;;;;;;;;4403738;32;20213;-52
2021/05/25 09:19:49;;;;;;;8.57;5.82;;;;;;;;;;4414385;32;20293;-52
2021/05/25 09:22:41;;;;;;;10.20;5.43;;;;;;;;;;4405237;32;20270;-53
2021/05/25 09:25:16;;;;;;;12.15;5.75;;;;;;;;;;4418858;32;20591;-53
2021/05/25 09:27:47;;;;;;;12.80;5.47;;;;;;;;;;4418973;32;20220;-53
2021/05/25 09:30:25;;;;;;;9.50;5.28;;;;;;;;;;4418887;32;20235;-53
2021/05/25 09:32:55;;;;;;;12.70;6.03;;;;;;;;;;4403725;32;20744;-53
2021/05/25 09:35:22;;;;;;;37.17;9.55;;;;;;;;;;4412082;32;20295;-53
2021/05/25 09:37:53;;;;;;;17.87;7.18;;;;;;;;;;4418003;32;20247;-53
2021/05/25 09:40:22;;;;;;;22.73;7.37;;;;;;;;;;4418694;32;20212;-53
2021/05/25 09:42:48;;;;;;;31.95;6.65;;;;;;;;;;4416983;32;20232;-53
2021/05/25 09:45:17;;;;;;;21.10;5.50;;;;;;;;;;4403411;32;20224;-53
2021/05/25 09:47:53;;;;;;;22.40;6.60;;;;;;;;;;4403304;32;20300;-53
2021/05/25 09:50:21;;;;;;;11.65;5.30;;;;;;;;;;4403461;32;20192;-53
2021/05/25 09:53:03;;;;;;;13.52;5.45;;;;;;;;;;4403298;32;20221;-53
2021/05/25 09:55:29;;;;;;;15.75;5.85;;;;;;;;;;4403484;32;20197;-53
2021/05/25 09:57:56;;;;;;;13.07;4.95;;;;;;;;;;4403858;32;20263;-53
2021/05/25 10:00:34;;;;;;;13.62;5.90;;;;;;;;;;4402984;32;20227;-54
2021/05/25 10:03:04;;;;;;;22.00;5.55;;;;;;;;;;4402689;32;20326;-53
2021/05/25 10:05:30;;;;;;;10.65;5.40;;;;;;;;;;4402613;32;20370;-54
2021/05/25 10:07:56;;;;;;;17.27;5.68;;;;;;;;;;4402777;32;20278;-53
2021/05/25 10:10:22;;;;;;;10.23;5.07;;;;;;;;;;4402556;32;20348;-53
2021/05/25 10:12:49;;;;;;;15.90;5.57;;;;;;;;;;4402658;32;20642;-52
2021/05/25 10:15:15;;;;;;;11.02;5.60;;;;;;;;;;4402841;32;20255;-52
2021/05/25 10:17:56;;;;;;;11.88;5.55;;;;;;;;;;4403306;32;20721;-52
2021/05/25 10:20:21;;;;;;;13.85;6.60;;;;;;;;;;4417288;32;20220;-52
2021/05/25 10:22:47;;;;;;;22.52;5.18;;;;;;;;;;4417867;32;20241;-53
2021/05/25 10:25:15;;;;;;;20.98;7.80;;;;;;;;;;4418324;32;20268;-52
2021/05/25 10:27:42;;;;;;;20.83;6.65;;;;;;;;;;4418135;32;20284;-53
2021/05/25 10:30:22;;;;;;;19.65;6.60;;;;;;;;;;4417832;32;20308;-56
2021/05/25 10:32:49;;;;;;;20.80;6.30;;;;;;;;;;4402825;32;20225;-52
2021/05/25 10:35:18;;;;;;;18.75;7.37;;;;;;;;;;4402878;32;20194;-52
2021/05/25 10:38:06;;;;;;;14.02;5.70;;;;;;;;;;4403079;32;20221;-52
2021/05/25 10:40:39;;;;;;;10.70;6.10;;;;;;;;;;4402658;32;20348;-52
2021/05/25 10:43:30;;;;;;;17.52;6.00;;;;;;;;;;4406151;32;20593;-52
2021/05/25 10:46:11;;;;;;;9.30;6.00;;;;;;;;;;4417579;32;20326;-53
2021/05/25 10:51:46;;;;;;;17.75;6.18;;;;;;;;;;4417388;32;20754;-53
2021/05/25 10:54:30;;;;;;;15.82;5.78;;;;;;;;;;4417801;32;20221;-53
2021/05/25 10:56:57;;;;;;;13.98;6.07;;;;;;;;;;4417937;32;20604;-53
2021/05/25 10:59:23;;;;;;;33.13;8.02;;;;;;;;;;4417887;32;20205;-53
2021/05/25 11:01:57;;;;;;;10.20;5.78;;;;;;;;;;4417717;32;20370;-54
2021/05/25 11:04:34;;;;;;;12.25;6.03;;;;;;;;;;4417649;32;20255;-53
2021/05/25 11:07:00;;;;;;;15.48;4.37;;;;;;;;;;4417985;32;20337;-53
2021/05/25 11:09:27;;;;;;;11.20;4.97;;;;;;;;;;4417790;32;20254;-53
2021/05/25 11:12:09;;;;;;;9.65;5.22;;;;;;;;;;4417861;32;20705;-52
2021/05/25 11:14:34;;;;;;;18.27;5.87;;;;;;;;;;4418149;32;20688;-53
2021/05/25 11:17:33;;;;;;;13.50;5.10;;;;;;;;;;4420901;32;20364;-52
2021/05/25 11:20:49;;;;;;;12.65;4.90;;;;;;;;;;4408556;32;20205;-52
2021/05/25 11:23:42;;;;;;;13.48;5.25;;;;;;;;;;4405892;32;20323;-53
2021/05/25 11:26:08;;;;;;;9.85;4.50;;;;;;;;;;4397383;32;20305;-53
2021/05/25 11:29:11;;;;;;;17.42;4.43;;;;;;;;;;4405562;32;20221;-53
2021/05/25 11:31:38;;;;;;;16.55;3.75;;;;;;;;;;4414466;32;20213;-53
2021/05/25 11:34:05;;;;;;;13.48;4.20;;;;;;;;;;4420645;32;20205;-52
2021/05/25 11:36:30;;;;;;;12.48;3.60;;;;;;;;;;4420682;32;20284;-53
2021/05/25 11:38:56;;;;;;;13.02;3.70;;;;;;;;;;4420578;32;20336;-53
2021/05/25 11:41:21;;;;;;;14.25;3.80;;;;;;;;;;4420437;32;20255;-53
2021/05/25 11:43:47;;;;;;;8.32;3.40;;;;;;;;;;4420064;32;20248;-53
2021/05/25 11:46:12;;;;;;;15.68;3.58;;;;;;;;;;4420350;32;20246;-53
2021/05/25 11:48:38;;;;;;;11.30;3.37;;;;;;;;;;4420221;32;20306;-53
2021/05/25 11:51:10;;;;;;;6.57;2.72;;;;;;;;;;4419912;32;20280;-53
2021/05/25 11:53:37;;;;;;;14.87;3.55;;;;;;;;;;4406385;32;20256;-53
2021/05/25 11:56:02;;;;;;;12.20;3.10;;;;;;;;;;4420311;32;20554;-53
2021/05/25 11:58:28;;;;;;;14.25;3.10;;;;;;;;;;4420222;32;20217;-53
2021/05/25 12:00:53;;;;;;;26.42;3.65;;;;;;;;;;4420044;32;20578;-53
2021/05/25 12:03:19;;;;;;;16.87;2.92;;;;;;;;;;4417431;32;20358;-53
2021/05/25 12:05:45;;;;;;;18.35;3.00;;;;;;;;;;4412511;32;20247;-52
2021/05/25 12:08:11;;;;;;;5.82;2.28;;;;;;;;;;4420192;32;20679;-53
2021/05/25 12:10:39;;;;;;;8.68;2.97;;;;;;;;;;4419934;32;20272;-55
2021/05/25 12:13:08;;;;;;;19.92;3.00;;;;;;;;;;4408408;32;20284;-53
2021/05/25 12:15:42;;;;;;;15.10;2.65;;;;;;;;;;4405056;32;20622;-54
2021/05/25 12:18:11;;;;;;;12.27;2.67;;;;;;;;;;4418904;32;20370;-53
2021/05/25 12:20:45;;;;;;;14.40;2.78;;;;;;;;;;4409432;32;20213;-53
2021/05/25 12:23:15;;;;;;;16.30;2.95;;;;;;;;;;4419757;32;20212;-53
2021/05/25 12:25:42;;;;;;;12.95;2.78;;;;;;;;;;4419153;32;20515;-54
2021/05/25 12:28:13;;;;;;;7.68;2.78;;;;;;;;;;4418707;32;20557;-53
2021/05/25 12:30:49;;;;;;;18.60;2.72;;;;;;;;;;4418654;32;20610;-53
2021/05/25 12:33:26;;;;;;;7.78;2.47;;;;;;;;;;4404374;32;20192;-53
2021/05/25 12:35:52;;;;;;;17.80;3.95;;;;;;;;;;4409753;32;20622;-53
2021/05/25 12:38:20;;;;;;;15.38;2.90;;;;;;;;;;4409955;32;20271;-53
2021/05/25 12:40:56;;;;;;;9.23;2.58;;;;;;;;;;4403729;32;20224;-52
2021/05/25 12:43:28;;;;;;;10.68;2.45;;;;;;;;;;4409183;32;20314;-52
2021/05/25 12:45:54;;;;;;;10.32;2.42;;;;;;;;;;4390309;32;20226;-52
2021/05/25 12:48:32;;;;;;;30.60;3.00;;;;;;;;;;4404252;32;20241;-53
2021/05/25 12:50:58;;;;;;;11.68;2.67;;;;;;;;;;4404243;32;20216;-52
2021/05/25 12:53:23;;;;;;;8.32;2.35;;;;;;;;;;4404050;32;20237;-53
2021/05/25 12:55:52;;;;;;;14.35;3.15;;;;;;;;;;4404229;32;20720;-53
2021/05/25 12:58:57;;;;;;;13.73;2.47;;;;;;;;;;4403997;32;20326;-53
2021/05/25 13:01:32;;;;;;;19.52;3.53;;;;;;;;;;4361625;32;20260;-53
2021/05/25 13:04:07;;;;;;;8.85;2.78;;;;;;;;;;4371424;32;20225;-52
2021/05/25 13:06:48;;;;;;;13.57;2.67;;;;;;;;;;4390575;32;20244;-53
2021/05/25 13:09:18;;;;;;;18.05;3.35;;;;;;;;;;4403849;32;20549;-52
2021/05/25 13:12:08;;;;;;;17.12;3.20;;;;;;;;;;4398885;32;20279;-52
2021/05/25 13:14:35;;;;;;;6.70;2.75;;;;;;;;;;4388518;32;20202;-52
2021/05/25 13:17:11;;;;;;;9.05;2.75;;;;;;;;;;4388746;32;20798;-53
2021/05/25 13:19:45;;;;;;;15.35;2.97;;;;;;;;;;4398397;32;20217;-53
2021/05/25 13:22:22;;;;;;;16.02;3.08;;;;;;;;;;4403451;32;20268;-53
2021/05/25 13:25:01;;;;;;;16.87;2.53;;;;;;;;;;4403527;32;20577;-53
2021/05/25 13:27:28;;;;;;;16.20;2.83;;;;;;;;;;4403302;32;20244;-53
2021/05/25 13:30:14;;;;;;;18.25;2.87;;;;;;;;;;4403386;32;20220;-53
2021/05/25 13:32:40;;;;;;;7.78;2.10;;;;;;;;;;4403419;32;20241;-52
2021/05/25 13:35:09;;;;;;;12.55;2.80;;;;;;;;;;4400554;32;20323;-54
2021/05/25 13:37:39;;;;;;;14.20;2.60;;;;;;;;;;4387982;32;20686;-53
2021/05/25 13:40:08;;;;;;;11.55;2.72;;;;;;;;;;4388019;32;20245;-53
2021/05/25 13:42:34;;;;;;;12.73;2.47;;;;;;;;;;4388677;32;20209;-53
2021/05/25 13:45:00;;;;;;;13.65;2.75;;;;;;;;;;4403478;32;20223;-52
2021/05/25 13:47:27;;;;;;;11.90;3.33;;;;;;;;;;4403375;32;20256;-52
2021/05/25 13:49:52;;;;;;;13.55;2.85;;;;;;;;;;4403028;32;20226;-52
2021/05/25 13:52:20;;;;;;;15.55;3.67;;;;;;;;;;4403005;32;20607;-52
2021/05/25 13:54:46;;;;;;;11.10;2.72;;;;;;;;;;4403161;32;20281;-52
2021/05/25 13:57:20;;;;;;;14.10;2.58;;;;;;;;;;4403676;32;20327;-52
2021/05/25 14:02:13;;;;;;;9.93;3.03;;;;;;;;;;4393260;32;20611;-53
2021/05/25 14:04:38;;;;;;;17.62;3.10;;;;;;;;;;4391203;32;20221;-53
2021/05/25 14:07:16;;;;;;;9.40;3.62;;;;;;;;;;4389209;32;20229;-53
2021/05/25 14:09:42;;;;;;;12.75;3.05;;;;;;;;;;4402946;32;20277;-53
2021/05/25 14:12:08;;;;;;;15.85;3.62;;;;;;;;;;4409756;32;20225;-52
2021/05/25 14:14:33;;;;;;;7.78;3.30;;;;;;;;;;4417883;32;20213;-52
2021/05/25 14:16:59;;;;;;;12.50;3.58;;;;;;;;;;4418098;32;20554;-52
2021/05/25 14:19:24;;;;;;;14.43;2.90;;;;;;;;;;4409001;32;20543;-53
2021/05/25 14:21:49;;;;;;;8.80;2.70;;;;;;;;;;4402964;32;20330;-51
2021/05/25 14:24:15;;;;;;;14.75;3.22;;;;;;;;;;4402560;32;20349;-52
2021/05/25 14:26:41;;;;;;;5.82;2.62;;;;;;;;;;4402678;32;20630;-52
2021/05/25 14:29:07;;;;;;;17.30;3.15;;;;;;;;;;4402348;32;20209;-52
2021/05/25 14:31:34;;;;;;;23.20;4.25;;;;;;;;;;4402600;32;20249;-52
2021/05/25 14:33:59;;;;;;;12.07;3.45;;;;;;;;;;4402243;32;20213;-53
2021/05/25 14:36:25;;;;;;;13.13;3.97;;;;;;;;;;4413369;32;20251;-52
2021/05/25 14:38:50;;;;;;;9.48;3.03;;;;;;;;;;4417626;32;20227;-53
2021/05/25 14:41:16;;;;;;;6.57;2.90;;;;;;;;;;4417618;32;20220;-52
2021/05/25 14:43:41;;;;;;;18.73;3.12;;;;;;;;;;4417441;32;20284;-54